createdAt,value
2022-12-31T00:00:08.060Z,52.60
2022-12-31T00:02:54.754Z,64.60
2022-12-31T00:05:22.086Z,60.50
2022-12-31T00:07:48.852Z,61.70
2022-12-31T00:10:15.473Z,77.20
2022-12-31T00:12:42.020Z,60.30
2022-12-31T00:15:08.691Z,63.60
2022-12-31T00:17:35.287Z,63.00
2022-12-31T00:20:01.958Z,62.80
2022-12-31T00:22:28.503Z,69.30
2022-12-31T00:24:55.056Z,79.50
2022-12-31T00:27:21.716Z,83.90
2022-12-31T00:29:48.322Z,77.60
2022-12-31T00:32:14.821Z,69.20
2022-12-31T00:34:41.353Z,72.00
2022-12-31T00:37:07.933Z,63.20
2022-12-31T00:39:34.565Z,60.00
2022-12-31T00:42:01.978Z,59.70
2022-12-31T00:44:28.625Z,56.70
2022-12-31T00:46:55.434Z,59.50
2022-12-31T00:49:22.091Z,59.00
2022-12-31T00:51:48.979Z,53.30
2022-12-31T00:54:15.727Z,55.50
2022-12-31T00:56:42.368Z,59.60
2022-12-31T00:59:09.093Z,54.90
2022-12-31T01:01:38.686Z,54.70
2022-12-31T01:04:12.033Z,54.80
2022-12-31T01:06:40.012Z,55.60
2022-12-31T01:09:07.844Z,51.10
2022-12-31T01:11:34.523Z,49.90
2022-12-31T01:14:05.528Z,51.90
2022-12-31T01:16:34.751Z,49.20
2022-12-31T01:19:23.451Z,49.00
2022-12-31T01:21:51.414Z,45.00
2022-12-31T01:24:19.132Z,48.00
2022-12-31T01:26:47.179Z,44.20
2022-12-31T01:29:14.303Z,46.90
2022-12-31T01:31:41.348Z,46.90
2022-12-31T01:34:09.264Z,48.10
2022-12-31T01:36:37.963Z,50.40
2022-12-31T01:39:06.879Z,50.20
2022-12-31T01:41:36.569Z,48.10
2022-12-31T01:44:26.374Z,51.90
2022-12-31T01:46:56.175Z,47.90
2022-12-31T01:49:31.976Z,49.30
2022-12-31T01:52:20.532Z,46.90
2022-12-31T01:54:52.372Z,47.40
2022-12-31T01:57:20.464Z,47.10
2022-12-31T01:59:47.212Z,46.30
2022-12-31T02:02:15.406Z,43.10
2022-12-31T02:04:42.185Z,46.00
2022-12-31T02:07:10.817Z,44.90
2022-12-31T02:09:39.889Z,47.80
2022-12-31T02:12:08.538Z,47.20
2022-12-31T02:14:46.086Z,47.30
2022-12-31T02:17:20.269Z,65.20
2022-12-31T02:19:49.864Z,46.80
2022-12-31T02:22:31.848Z,41.20
2022-12-31T02:25:37.767Z,44.00
2022-12-31T02:28:13.525Z,43.60
2022-12-31T02:30:43.568Z,41.50
2022-12-31T02:33:45.324Z,41.20
2022-12-31T02:36:20.025Z,41.20
2022-12-31T02:38:51.608Z,40.50
2022-12-31T02:41:38.619Z,38.70
2022-12-31T02:44:20.489Z,33.20
2022-12-31T02:47:43.039Z,34.20
2022-12-31T02:50:33.129Z,36.80
2022-12-31T02:53:41.357Z,33.70
2022-12-31T02:56:28.212Z,36.20
2022-12-31T02:59:26.245Z,32.50
2022-12-31T03:02:14.172Z,32.90
2022-12-31T03:04:48.616Z,28.10
2022-12-31T03:07:31.095Z,29.90
2022-12-31T03:09:58.661Z,31.40
2022-12-31T03:12:46.500Z,27.80
2022-12-31T03:15:29.361Z,31.00
2022-12-31T03:18:10.014Z,26.50
2022-12-31T03:21:01.258Z,36.30
2022-12-31T03:23:33.194Z,27.80
2022-12-31T03:26:01.197Z,27.20
2022-12-31T03:28:29.752Z,28.40
2022-12-31T03:31:00.155Z,41.30
2022-12-31T03:36:29.020Z,27.50
2022-12-31T03:38:55.740Z,24.80
2022-12-31T03:41:22.525Z,28.70
2022-12-31T03:43:49.161Z,27.10
2022-12-31T03:46:15.853Z,25.80
2022-12-31T03:48:42.471Z,26.30
2022-12-31T03:51:09.007Z,27.80
2022-12-31T03:53:35.550Z,26.70
2022-12-31T03:56:02.149Z,26.30
2022-12-31T03:58:28.832Z,26.10
2022-12-31T04:00:55.723Z,28.60
2022-12-31T04:03:29.183Z,25.40
2022-12-31T04:05:56.538Z,26.90
2022-12-31T04:08:24.032Z,28.00
2022-12-31T04:10:51.195Z,26.50
2022-12-31T04:13:17.983Z,30.10
2022-12-31T04:15:44.754Z,27.00
2022-12-31T04:18:12.085Z,28.10
2022-12-31T04:20:38.743Z,27.90
2022-12-31T04:23:05.504Z,23.70
2022-12-31T04:25:32.052Z,24.90
2022-12-31T04:27:58.605Z,28.00
2022-12-31T04:30:25.185Z,23.50
2022-12-31T04:32:51.768Z,24.60
2022-12-31T04:35:18.354Z,23.30
2022-12-31T04:37:44.954Z,24.00
2022-12-31T04:40:11.773Z,22.00
2022-12-31T04:42:38.385Z,22.20
2022-12-31T04:45:05.978Z,23.90
2022-12-31T04:47:32.710Z,23.60
2022-12-31T04:49:59.394Z,20.90
2022-12-31T04:52:25.994Z,19.00
2022-12-31T04:54:52.573Z,20.00
2022-12-31T04:57:19.190Z,19.50
2022-12-31T04:59:45.815Z,17.30
2022-12-31T05:02:12.554Z,16.60
2022-12-31T05:04:39.228Z,16.70
2022-12-31T05:07:05.832Z,17.60
2022-12-31T05:09:32.515Z,15.20
2022-12-31T05:11:59.337Z,36.90
2022-12-31T05:14:26.058Z,17.10
2022-12-31T05:16:53.961Z,17.30
2022-12-31T05:19:20.701Z,16.70
2022-12-31T05:22:07.241Z,15.40
2022-12-31T05:24:33.846Z,16.20
2022-12-31T05:27:00.473Z,17.60
2022-12-31T05:29:27.195Z,16.20
2022-12-31T05:31:53.734Z,17.30
2022-12-31T05:34:20.209Z,20.00
2022-12-31T05:36:46.787Z,15.90
2022-12-31T05:39:13.440Z,18.50
2022-12-31T05:41:39.955Z,21.70
2022-12-31T05:44:06.554Z,20.40
2022-12-31T05:46:33.137Z,19.00
2022-12-31T05:48:59.691Z,24.20
2022-12-31T05:51:26.252Z,18.30
2022-12-31T05:53:52.845Z,20.00
2022-12-31T05:56:19.979Z,21.00
2022-12-31T05:58:46.585Z,19.30
2022-12-31T06:01:13.259Z,17.60
2022-12-31T06:03:40.929Z,19.80
2022-12-31T06:06:07.668Z,22.50
2022-12-31T06:08:34.367Z,19.60
2022-12-31T06:11:01.064Z,19.90
2022-12-31T06:13:27.710Z,17.90
2022-12-31T06:15:54.475Z,20.10
2022-12-31T06:18:21.177Z,19.20
2022-12-31T06:20:47.735Z,20.90
2022-12-31T06:23:14.292Z,21.10
2022-12-31T06:25:41.496Z,19.20
2022-12-31T06:28:08.591Z,18.40
2022-12-31T06:30:35.254Z,22.10
2022-12-31T06:33:01.825Z,19.00
2022-12-31T06:35:30.088Z,18.30
2022-12-31T06:37:56.685Z,19.00
2022-12-31T06:40:23.526Z,18.70
2022-12-31T06:42:53.395Z,17.20
2022-12-31T06:45:24.509Z,17.50
2022-12-31T06:47:51.113Z,16.00
2022-12-31T06:50:17.689Z,18.40
2022-12-31T06:52:44.295Z,22.00
2022-12-31T06:55:11.586Z,18.80
2022-12-31T06:57:38.449Z,15.40
2022-12-31T07:00:06.257Z,12.40
2022-12-31T07:02:56.240Z,12.70
2022-12-31T07:05:38.875Z,14.90
2022-12-31T07:08:29.710Z,15.40
2022-12-31T07:11:03.893Z,15.70
2022-12-31T07:13:48.370Z,14.40
2022-12-31T07:16:35.253Z,10.80
2022-12-31T07:19:59.514Z,13.60
2022-12-31T07:22:26.555Z,12.90
2022-12-31T07:24:53.634Z,15.50
2022-12-31T07:27:40.766Z,13.30
2022-12-31T07:30:16.480Z,15.20
2022-12-31T07:32:52.262Z,15.40
2022-12-31T07:35:47.356Z,16.80
2022-12-31T07:38:42.870Z,12.10
2022-12-31T07:41:46.190Z,14.80
2022-12-31T07:44:38.516Z,14.30
2022-12-31T07:47:22.756Z,13.70
2022-12-31T07:49:49.814Z,14.20
2022-12-31T07:52:16.999Z,13.60
2022-12-31T07:54:43.815Z,13.50
2022-12-31T07:57:17.377Z,12.10
2022-12-31T07:59:49.787Z,17.70
2022-12-31T08:02:26.017Z,15.90
2022-12-31T08:05:22.400Z,13.80
2022-12-31T08:08:04.878Z,12.60
2022-12-31T08:10:43.691Z,15.10
2022-12-31T08:13:12.024Z,12.80
2022-12-31T08:15:39.717Z,15.80
2022-12-31T08:18:08.172Z,14.10
2022-12-31T08:20:48.872Z,14.90
2022-12-31T08:23:32.252Z,14.10
2022-12-31T08:26:30.795Z,14.80
2022-12-31T08:28:58.757Z,15.30
2022-12-31T08:31:52.410Z,14.70
2022-12-31T08:35:05.550Z,13.30
2022-12-31T08:37:50.711Z,12.60
2022-12-31T08:40:52.203Z,14.00
2022-12-31T08:43:32.369Z,11.60
2022-12-31T08:46:13.307Z,17.40
2022-12-31T08:48:53.371Z,16.00
2022-12-31T08:51:47.754Z,15.10
2022-12-31T08:54:17.324Z,13.70
2022-12-31T09:04:12.032Z,16.60
2022-12-31T09:07:17.468Z,14.40
2022-12-31T09:10:08.938Z,20.00
2022-12-31T09:13:08.512Z,18.60
2022-12-31T09:15:54.087Z,19.50
2022-12-31T09:18:32.943Z,14.90
2022-12-31T09:23:28.593Z,18.80
2022-12-31T09:26:17.419Z,16.30
2022-12-31T09:29:02.305Z,37.90
2022-12-31T09:32:10.227Z,19.20
2022-12-31T09:34:46.501Z,21.60
2022-12-31T09:37:52.288Z,16.10
2022-12-31T09:40:28.300Z,21.30
2022-12-31T09:43:24.951Z,17.10
2022-12-31T09:47:07.111Z,16.00
2022-12-31T09:50:07.280Z,16.10
2022-12-31T09:53:03.074Z,14.20
2022-12-31T09:55:56.117Z,14.80
2022-12-31T09:58:49.291Z,13.20
2022-12-31T10:01:34.681Z,13.70
2022-12-31T10:04:16.365Z,12.90
2022-12-31T10:07:11.109Z,13.60
2022-12-31T10:10:10.909Z,13.10
2022-12-31T10:12:46.770Z,14.90
2022-12-31T10:15:37.897Z,15.10
2022-12-31T10:18:30.389Z,13.60
2022-12-31T10:21:01.460Z,15.20
2022-12-31T10:24:14.622Z,13.30
2022-12-31T10:26:53.407Z,17.50
2022-12-31T10:29:47.892Z,14.40
2022-12-31T10:32:37.650Z,15.00
2022-12-31T10:35:29.639Z,17.00
2022-12-31T10:38:46.770Z,12.60
2022-12-31T10:41:16.633Z,13.70
2022-12-31T10:44:11.183Z,15.60
2022-12-31T10:46:38.086Z,12.40
2022-12-31T10:49:21.671Z,18.40
2022-12-31T10:52:25.978Z,12.70
2022-12-31T10:55:33.180Z,12.20
2022-12-31T10:58:19.345Z,14.10
2022-12-31T11:01:25.903Z,16.60
2022-12-31T11:07:37.865Z,14.60
2022-12-31T11:10:47.127Z,12.90
2022-12-31T11:13:57.539Z,14.90
2022-12-31T11:16:44.039Z,18.00
2022-12-31T11:19:29.681Z,17.80
2022-12-31T11:22:30.501Z,13.50
2022-12-31T11:25:11.977Z,15.00
2022-12-31T11:27:51.066Z,13.50
2022-12-31T11:30:59.225Z,14.50
2022-12-31T11:33:32.267Z,14.60
2022-12-31T11:36:05.524Z,14.30
2022-12-31T11:38:52.908Z,17.20
2022-12-31T11:41:39.342Z,15.80
2022-12-31T11:44:44.164Z,13.40
2022-12-31T11:47:56.522Z,16.40
2022-12-31T11:50:38.382Z,17.30
2022-12-31T11:53:38.492Z,14.70
2022-12-31T11:56:19.909Z,15.20
2022-12-31T11:58:51.013Z,15.10
2022-12-31T12:01:35.469Z,15.80
2022-12-31T12:04:03.033Z,20.00
2022-12-31T12:06:32.351Z,17.30
2022-12-31T12:09:03.405Z,16.90
2022-12-31T12:11:34.775Z,17.10
2022-12-31T12:14:17.566Z,17.40
2022-12-31T12:16:44.183Z,16.90
2022-12-31T12:19:17.844Z,15.00
2022-12-31T12:21:47.347Z,17.20
2022-12-31T12:24:25.315Z,17.60
2022-12-31T12:26:52.388Z,16.70
2022-12-31T12:29:28.949Z,17.40
2022-12-31T12:31:59.976Z,18.50
2022-12-31T12:34:36.559Z,19.00
2022-12-31T12:37:04.170Z,18.40
2022-12-31T12:39:33.419Z,17.30
2022-12-31T12:42:06.857Z,18.50
2022-12-31T12:44:36.216Z,15.50
2022-12-31T12:47:07.275Z,15.80
2022-12-31T12:49:52.128Z,19.70
2022-12-31T12:52:53.756Z,16.10
2022-12-31T12:55:53.030Z,16.90
2022-12-31T12:58:25.892Z,19.40
2022-12-31T13:01:04.889Z,17.60
2022-12-31T13:03:31.559Z,17.20
2022-12-31T13:06:12.369Z,17.00
2022-12-31T13:09:33.598Z,18.40
2022-12-31T13:12:25.943Z,16.90
2022-12-31T13:15:22.675Z,19.40
2022-12-31T13:18:01.899Z,19.70
2022-12-31T13:20:46.723Z,17.80
2022-12-31T13:23:37.779Z,20.20
2022-12-31T13:26:25.137Z,19.00
2022-12-31T13:28:52.301Z,19.40
2022-12-31T13:31:27.127Z,18.00
2022-12-31T13:34:03.942Z,18.00
2022-12-31T13:36:34.627Z,22.80
2022-12-31T13:39:07.415Z,17.50
2022-12-31T13:41:41.032Z,18.80
2022-12-31T13:44:24.374Z,22.00
2022-12-31T13:47:12.935Z,20.90
2022-12-31T13:49:39.457Z,19.80
2022-12-31T13:52:33.747Z,20.20
2022-12-31T13:55:18.259Z,30.80
2022-12-31T13:57:54.985Z,22.70
2022-12-31T14:00:46.905Z,20.20
2022-12-31T14:03:22.836Z,19.30
2022-12-31T14:06:26.438Z,21.20
2022-12-31T14:08:53.162Z,18.50
2022-12-31T14:12:09.437Z,20.70
2022-12-31T14:15:01.189Z,16.00
2022-12-31T14:17:44.560Z,16.30
2022-12-31T14:20:31.406Z,19.50
2022-12-31T14:23:24.215Z,17.90
2022-12-31T14:25:56.953Z,18.90
2022-12-31T14:29:01.667Z,22.80
2022-12-31T14:31:44.069Z,20.70
2022-12-31T14:34:38.548Z,18.50
2022-12-31T14:37:15.983Z,17.40
2022-12-31T14:39:54.909Z,22.90
2022-12-31T14:42:28.073Z,19.70
2022-12-31T14:45:15.407Z,23.70
2022-12-31T14:48:20.194Z,18.40
2022-12-31T14:50:49.330Z,18.10
2022-12-31T14:53:24.469Z,22.00
2022-12-31T14:55:57.077Z,20.20
2022-12-31T14:58:37.431Z,20.10
2022-12-31T15:01:21.691Z,16.90
2022-12-31T15:03:49.932Z,16.70
2022-12-31T15:06:22.480Z,21.50
2022-12-31T15:08:49.168Z,19.30
2022-12-31T15:11:28.531Z,21.20
2022-12-31T15:14:20.028Z,19.70
2022-12-31T15:17:02.816Z,19.50
2022-12-31T15:20:04.654Z,20.70
2022-12-31T15:22:46.197Z,18.40
2022-12-31T15:25:28.029Z,21.10
2022-12-31T15:28:00.448Z,22.00
2022-12-31T15:30:37.684Z,19.70
2022-12-31T15:33:18.123Z,17.30
2022-12-31T15:35:51.837Z,18.50
2022-12-31T15:38:34.483Z,18.00
2022-12-31T15:41:26.229Z,19.10
2022-12-31T15:43:57.615Z,18.00
2022-12-31T15:46:29.984Z,16.60
2022-12-31T15:49:06.835Z,19.30
2022-12-31T15:51:54.673Z,18.30
2022-12-31T15:54:50.926Z,16.50
2022-12-31T15:57:20.439Z,18.50
2022-12-31T15:59:47.414Z,20.70
2022-12-31T16:02:25.225Z,18.00
2022-12-31T16:04:57.457Z,17.30
2022-12-31T16:07:27.989Z,19.90
2022-12-31T16:09:59.162Z,16.70
2022-12-31T16:12:33.753Z,22.10
2022-12-31T16:15:03.153Z,21.80
2022-12-31T16:17:35.762Z,25.90
2022-12-31T16:20:23.182Z,21.30
2022-12-31T16:22:52.673Z,22.40
2022-12-31T16:25:36.820Z,22.00
2022-12-31T16:28:03.716Z,24.40
2022-12-31T16:30:35.801Z,24.30
2022-12-31T16:33:06.048Z,23.50
2022-12-31T16:35:38.119Z,20.50
2022-12-31T16:38:12.695Z,18.50
2022-12-31T16:40:42.307Z,20.10
2022-12-31T16:43:42.632Z,18.60
2022-12-31T16:46:33.755Z,18.80
2022-12-31T16:49:19.957Z,18.10
2022-12-31T16:51:48.999Z,19.50
2022-12-31T16:54:47.142Z,57.10
2022-12-31T16:57:21.831Z,36.00
2022-12-31T16:59:54.112Z,26.40
2022-12-31T17:02:40.777Z,18.30
2022-12-31T17:05:22.510Z,22.70
2022-12-31T17:07:49.723Z,15.90
2022-12-31T17:10:29.269Z,15.00
2022-12-31T17:15:47.104Z,15.70
2022-12-31T17:18:22.228Z,16.50
2022-12-31T17:20:54.172Z,16.70
2022-12-31T17:23:33.825Z,19.90
2022-12-31T17:26:09.839Z,17.30
2022-12-31T17:28:46.953Z,19.60
2022-12-31T17:31:38.326Z,16.50
2022-12-31T17:34:14.522Z,18.50
2022-12-31T17:37:18.405Z,15.80
2022-12-31T17:39:50.866Z,14.30
2022-12-31T17:42:27.878Z,14.60
2022-12-31T17:45:05.505Z,17.70
2022-12-31T17:47:39.030Z,21.30
2022-12-31T17:50:21.318Z,16.50
2022-12-31T17:52:48.679Z,17.80
2022-12-31T17:55:16.042Z,17.00
2022-12-31T17:57:51.782Z,17.00
2022-12-31T18:00:24.481Z,18.50
2022-12-31T18:02:52.010Z,20.20
2022-12-31T18:05:21.871Z,22.00
2022-12-31T18:07:49.217Z,19.80
2022-12-31T18:10:18.761Z,18.30
2022-12-31T18:12:51.515Z,16.80
2022-12-31T18:15:21.572Z,19.40
2022-12-31T18:17:49.165Z,20.80
2022-12-31T18:20:16.731Z,19.70
2022-12-31T18:22:44.546Z,16.30
2022-12-31T18:25:20.728Z,16.20
2022-12-31T18:27:49.143Z,14.70
2022-12-31T18:30:16.586Z,14.30
2022-12-31T18:38:27.417Z,21.90
2022-12-31T18:40:58.931Z,20.50
2022-12-31T18:43:26.000Z,18.80
2022-12-31T18:45:56.817Z,16.80
2022-12-31T18:48:24.758Z,15.30
2022-12-31T18:50:53.004Z,15.50
2022-12-31T18:53:22.735Z,13.10
2022-12-31T18:55:57.019Z,16.40
2022-12-31T18:58:25.313Z,16.00
2022-12-31T19:00:52.396Z,16.20
2022-12-31T19:03:22.519Z,14.90
2022-12-31T19:05:50.652Z,14.60
2022-12-31T19:08:21.692Z,15.70
2022-12-31T19:10:51.024Z,17.40
2022-12-31T19:13:19.911Z,17.40
2022-12-31T19:15:52.993Z,16.10
2022-12-31T19:18:20.008Z,14.60
2022-12-31T19:21:12.184Z,14.90
2022-12-31T19:23:38.976Z,15.30
2022-12-31T19:26:05.673Z,12.30
2022-12-31T19:28:32.452Z,14.70
2022-12-31T19:30:59.348Z,17.40
2022-12-31T19:33:26.328Z,17.40
2022-12-31T19:35:53.176Z,13.90
2022-12-31T19:38:22.802Z,16.40
2022-12-31T19:40:50.610Z,14.90
2022-12-31T19:43:20.120Z,13.80
2022-12-31T19:45:47.547Z,12.50
2022-12-31T19:48:16.897Z,12.20
2022-12-31T19:50:47.045Z,17.80
2022-12-31T19:53:20.924Z,14.90
2022-12-31T19:55:48.282Z,15.30
2022-12-31T19:58:22.005Z,15.20
2022-12-31T20:00:55.577Z,13.40
2022-12-31T20:03:24.831Z,15.20
2022-12-31T20:06:07.910Z,15.40
2022-12-31T20:08:37.196Z,15.70
2022-12-31T20:11:16.848Z,17.40
2022-12-31T20:13:45.826Z,19.90
2022-12-31T20:16:16.499Z,16.80
2022-12-31T20:18:44.944Z,17.90
2022-12-31T20:21:14.660Z,19.50
2022-12-31T20:23:41.746Z,18.10
2022-12-31T20:26:09.658Z,19.10
2022-12-31T20:28:36.913Z,16.80
2022-12-31T20:31:09.045Z,17.60
2022-12-31T20:33:36.422Z,15.10
2022-12-31T20:36:05.184Z,13.50
2022-12-31T20:38:33.546Z,15.40
2022-12-31T20:41:12.134Z,16.60
2022-12-31T20:43:39.367Z,18.80
2022-12-31T20:46:14.351Z,19.30
2022-12-31T20:48:41.373Z,14.40
2022-12-31T20:51:08.222Z,14.10
2022-12-31T20:53:35.130Z,16.30
2022-12-31T20:56:07.887Z,24.00
2022-12-31T20:58:35.250Z,22.30
2022-12-31T21:01:13.391Z,22.70
2022-12-31T21:06:30.782Z,15.60
2022-12-31T21:09:00.713Z,17.10
2022-12-31T21:11:46.362Z,18.40
2022-12-31T21:14:13.406Z,15.10
2022-12-31T21:16:40.216Z,14.50
2022-12-31T21:19:07.235Z,15.00
2022-12-31T21:21:33.951Z,17.00
2022-12-31T21:24:00.702Z,16.40
2022-12-31T21:26:28.657Z,13.70
2022-12-31T21:28:55.663Z,17.20
2022-12-31T21:31:22.647Z,16.20
2022-12-31T21:33:51.907Z,15.40
2022-12-31T21:36:19.975Z,14.00
2022-12-31T21:38:48.661Z,13.60
2022-12-31T21:41:34.820Z,16.30
2022-12-31T21:44:03.103Z,15.60
2022-12-31T21:46:29.881Z,15.10
2022-12-31T21:48:58.010Z,13.70
2022-12-31T21:51:25.423Z,14.60
2022-12-31T21:53:52.476Z,16.00
2022-12-31T21:56:20.590Z,14.20
2022-12-31T21:59:17.201Z,14.50
2022-12-31T22:02:07.076Z,99.60
2022-12-31T22:07:20.868Z,104.10
2022-12-31T22:09:47.771Z,98.90
2022-12-31T22:12:14.429Z,118.60
2022-12-31T22:15:14.750Z,67.40
2022-12-31T22:17:28.068Z,46.20
2022-12-31T22:20:26.217Z,28.80
2022-12-31T22:22:44.688Z,30.80
2022-12-31T22:25:15.231Z,29.10
2022-12-31T22:27:53.045Z,23.20
2022-12-31T22:30:33.418Z,21.10
2022-12-31T22:33:01.897Z,19.40
2022-12-31T22:35:28.543Z,18.90
2022-12-31T22:37:57.890Z,17.90
2022-12-31T22:40:26.077Z,17.40
2022-12-31T22:42:54.527Z,16.00
2022-12-31T22:45:21.257Z,19.70
2022-12-31T22:47:47.986Z,24.40
2022-12-31T22:50:14.654Z,47.30
2022-12-31T22:52:41.396Z,30.30
2022-12-31T22:55:09.636Z,22.80
2022-12-31T22:57:36.363Z,20.20
2022-12-31T23:00:09.644Z,20.70
2022-12-31T23:02:41.545Z,19.80
2022-12-31T23:05:15.376Z,18.90
2022-12-31T23:07:43.236Z,21.30
2022-12-31T23:10:28.941Z,19.00
2022-12-31T23:12:55.664Z,16.30
2022-12-31T23:15:40.934Z,17.30
2022-12-31T23:18:26.330Z,16.10
2022-12-31T23:21:11.676Z,23.30
2022-12-31T23:23:38.202Z,26.00
2022-12-31T23:26:06.295Z,34.20
2022-12-31T23:28:32.905Z,32.00
2022-12-31T23:31:05.728Z,28.00
2022-12-31T23:33:32.345Z,25.50
2022-12-31T23:36:06.537Z,23.60
2022-12-31T23:38:33.270Z,18.00
2022-12-31T23:40:59.947Z,15.10
2022-12-31T23:43:26.725Z,21.70
2022-12-31T23:45:53.478Z,17.10
2022-12-31T23:48:20.154Z,17.80
2022-12-31T23:50:52.965Z,17.60
2022-12-31T23:53:22.342Z,15.40
2022-12-31T23:55:50.017Z,18.00
2022-12-31T23:58:16.737Z,14.10
